マニラ/ニノイ・アキノ の空港の天気 - METARとTAF

ニノイ・アキノ国際空港 ( RPLL / MNL ) - フィリピン マニラ
飛行場実況気象(Metar)
観測時間10/02 00:00 PHT (10/01 16:00 UTC)
風向・風速不定 1m/s
視程8000m
天気現象弱いしゅう雨
少しの雲 雲底高度 700m
全天の4割程度の雲 雲底高度 760m
全天を覆う雲 雲底高度 2440m
気温25℃
湿度94%
気圧1009hPa
METARRPLL 011600Z VRB02KT 8000 -SHRA FEW023CB SCT025 OVC080 25/24 Q1009 RETS TEMPO -TSRA RMK A2980 CB SE-SW
過去の天気等 Google飛行場航空写真 Wunderground天気予報

過去48時間のMETAR

飛行場予報(TAF)
発表時間: 10/01 19:00 PHT (10/01 11:00 UTC)
予報対象時間: 1日20時 PHT ~ 3日2時 PHT
風向・風速南西 4m/s
視程10km以上
全天の4割程度の雲 雲底高度 760m
全天の8割程度の雲 雲底高度 7620m
1日20時 PHT ~ 2日2時 PHT に一時的に
視程8000m
天気現象弱い雷雨
少しの積乱雲 雲底高度 700m
全天の4割程度の雲 雲底高度 760m
全天の8割程度の雲 雲底高度 7620m
2日2時 PHT ~ 2日8時 PHT に一時的に
風向・風速不定 1m/s
天気現象周辺でしゅう雨
少しの積乱雲 雲底高度 700m
少しの雲 雲底高度 760m
全天の8割程度の雲 雲底高度 3050m
TAF RPLL 011100Z 0112/0218 23007KT 9999 SCT025 BKN250 TX32/0206Z TN27/0121Z
TEMPO 0112/0118 8000 -TSRA FEW023CB SCT025 BKN250
TEMPO 0118/0124 VRB01KT VCSH FEW023CB FEW025 BKN100